Woody Richerson — WDF9621 — position and weather

sailwx.info

Track history (hours):
 
Tides and Currents Weather Stations Pressure Air Temp Water Temp Dewpoint Dewpoint Depression Visibility Wind Speed Wind Dir Waves Ship Positions

Woody Richerson

Owner: Florida Marine, LLC, Mandeville, LA. More information available from US FCC via Universal Licensing System and Coast Guard Vessel Documentation Center.

Last reported at 2016-Dec-07 05:31 UTC. Time now 2016-Dec-09 23:14 UTC.
Position N 29°56' W 090°08'.

Length 27 m.

Type: Other ship. MMSI: 367507070.

Date/timePositionNaut miles runAvg speedWind from/ knotsBaromVisibWave heightAir tempDewpointWater temp
2016-Dec-07 05:31N 29°56' W 090°08'4 4.3
2016-Dec-07 04:33N 29°56' W 090°13'2 0.4
2016-Dec-06 22:33N 29°58' W 090°15'5 4.9
2016-Dec-06 21:33N 29°57' W 090°09'0 0.3
2016-Dec-06 20:33N 29°57' W 090°09'  
2016-Dec-03 20:33N 29°57' W 090°08'5 4.6
2016-Dec-03 19:33N 29°57' W 090°14'2 1.1
2016-Dec-03 17:17N 29°58' W 090°16'1 0.1
2016-Dec-02 23:26N 29°58' W 090°17'5 5.2
2016-Dec-02 22:27N 29°55' W 090°12'3 3.4
2016-Dec-02 21:30N 29°55' W 090°08'  
Track history (hours):
 
Tides and Currents Weather Stations Pressure Air Temp Water Temp Dewpoint Dewpoint Depression Visibility Wind Speed Wind Dir Waves Ship Positions

Woody Richerson

Owner: Florida Marine, LLC, Mandeville, LA. More information available from US FCC via Universal Licensing System and Coast Guard Vessel Documentation Center.

Last reported at 2016-Dec-07 05:31 UTC. Time now 2016-Dec-09 23:14 UTC.
Position N 29°56' W 090°08'.

Length 27 m.

Type: Other ship. MMSI: 367507070.

Date/timePositionNaut miles runAvg speedWind from/ knotsBaromVisibWave heightAir tempDewpointWater temp
2016-Dec-07 05:31N 29°56' W 090°08'4 4.3
2016-Dec-07 04:33N 29°56' W 090°13'2 0.4
2016-Dec-06 22:33N 29°58' W 090°15'5 4.9
2016-Dec-06 21:33N 29°57' W 090°09'0 0.3
2016-Dec-06 20:33N 29°57' W 090°09'  
2016-Dec-03 20:33N 29°57' W 090°08'5 4.6
2016-Dec-03 19:33N 29°57' W 090°14'2 1.1
2016-Dec-03 17:17N 29°58' W 090°16'1 0.1
2016-Dec-02 23:26N 29°58' W 090°17'5 5.2
2016-Dec-02 22:27N 29°55' W 090°12'3 3.4
2016-Dec-02 21:30N 29°55' W 090°08'  

Dump ship's entire track history